createdAt,value
2018-08-17T00:01:15.190Z,97533.00
2018-08-17T00:03:45.716Z,97536.00
2018-08-17T00:06:16.249Z,97532.00
2018-08-17T00:08:46.413Z,97533.00
2018-08-17T00:11:16.809Z,97534.00
2018-08-17T00:13:46.961Z,97538.00
2018-08-17T00:16:17.321Z,97538.00
2018-08-17T00:18:47.729Z,97535.00
2018-08-17T00:21:18.191Z,97534.00
2018-08-17T00:23:48.806Z,97529.00
2018-08-17T00:26:19.096Z,97531.00
2018-08-17T00:28:49.415Z,97533.00
2018-08-17T00:31:19.952Z,97535.00
2018-08-17T00:33:50.683Z,97537.00
2018-08-17T00:36:22.092Z,97535.00
2018-08-17T00:38:52.366Z,97536.00
2018-08-17T00:41:22.856Z,97533.00
2018-08-17T00:43:53.022Z,97534.00
2018-08-17T00:46:23.438Z,97538.00
2018-08-17T00:48:53.903Z,97534.00
2018-08-17T00:51:24.442Z,97530.00
2018-08-17T00:53:54.671Z,97534.00
2018-08-17T00:56:25.066Z,97532.00
2018-08-17T00:58:55.508Z,97531.00
2018-08-17T01:01:25.997Z,97524.00
2018-08-17T01:03:56.378Z,97526.00
2018-08-17T01:06:27.382Z,97523.00
2018-08-17T01:08:57.670Z,97522.00
2018-08-17T01:11:28.131Z,97522.00
2018-08-17T01:13:58.582Z,97521.00
2018-08-17T01:16:28.984Z,97522.00
2018-08-17T01:18:59.559Z,97521.00
2018-08-17T01:21:29.715Z,97524.00
2018-08-17T01:24:00.058Z,97521.00
2018-08-17T01:26:30.485Z,97523.00
2018-08-17T01:29:01.011Z,97517.00
2018-08-17T01:31:31.201Z,97516.00
2018-08-17T01:34:01.672Z,97517.00
2018-08-17T01:36:32.085Z,97513.00
2018-08-17T01:39:02.599Z,97514.00
2018-08-17T01:41:33.091Z,97509.00
2018-08-17T01:44:03.249Z,97511.00
2018-08-17T01:46:33.630Z,97508.00
2018-08-17T01:49:04.004Z,97511.00
2018-08-17T01:51:34.274Z,97510.00
2018-08-17T01:54:04.570Z,97504.00
2018-08-17T01:56:35.260Z,97508.00
2018-08-17T01:59:05.721Z,97508.00
2018-08-17T02:01:36.035Z,97510.00
2018-08-17T02:04:06.467Z,97510.00
2018-08-17T02:06:36.930Z,97510.00
2018-08-17T02:09:10.553Z,97506.00
2018-08-17T02:11:41.224Z,97506.00
2018-08-17T02:14:11.517Z,97504.00
2018-08-17T02:16:41.969Z,97508.00
2018-08-17T02:19:12.465Z,97505.00
2018-08-17T02:21:42.880Z,97503.00
2018-08-17T02:24:13.376Z,97499.00
2018-08-17T02:26:43.694Z,97494.00
2018-08-17T02:29:14.033Z,97495.00
2018-08-17T02:31:44.488Z,97496.00
2018-08-17T02:34:15.476Z,97492.00
2018-08-17T02:36:46.072Z,97492.00
2018-08-17T02:39:16.561Z,97487.00
2018-08-17T02:41:47.044Z,97484.00
2018-08-17T02:44:17.449Z,97484.00
2018-08-17T02:46:47.754Z,97481.00
2018-08-17T02:49:18.136Z,97484.00
2018-08-17T02:51:48.890Z,97481.00
2018-08-17T02:54:19.321Z,97482.00
2018-08-17T02:56:49.710Z,97482.00
2018-08-17T02:59:20.093Z,97473.00
2018-08-17T03:01:50.538Z,97473.00
2018-08-17T03:04:20.931Z,97475.00
2018-08-17T03:06:51.389Z,97472.00
2018-08-17T03:09:21.998Z,97475.00
2018-08-17T03:11:52.525Z,97473.00
2018-08-17T03:14:23.155Z,97463.00
2018-08-17T03:16:53.420Z,97464.00
2018-08-17T03:19:23.795Z,97465.00
2018-08-17T03:21:54.154Z,97466.00
2018-08-17T03:24:25.322Z,97468.00
2018-08-17T03:26:55.714Z,97472.00
2018-08-17T03:29:26.093Z,97469.00
2018-08-17T03:31:56.463Z,97471.00
2018-08-17T03:34:27.062Z,97471.00
2018-08-17T03:36:57.713Z,97467.00
2018-08-17T03:39:28.132Z,97472.00
2018-08-17T03:41:58.557Z,97474.00
2018-08-17T03:44:28.905Z,97474.00
2018-08-17T03:46:59.815Z,97473.00
2018-08-17T03:49:30.157Z,97469.00
2018-08-17T03:52:00.505Z,97470.00
2018-08-17T03:54:30.789Z,97471.00
2018-08-17T03:57:01.268Z,97470.00
2018-08-17T03:59:31.661Z,97474.00
2018-08-17T04:02:02.158Z,97477.00
2018-08-17T04:04:32.426Z,97485.00
2018-08-17T04:07:02.907Z,97480.00
2018-08-17T04:09:33.473Z,97481.00
2018-08-17T04:12:03.879Z,97487.00
2018-08-17T04:14:34.272Z,97492.00
2018-08-17T04:17:04.586Z,97484.00
2018-08-17T04:19:35.074Z,97492.00
2018-08-17T04:22:05.333Z,97495.00
2018-08-17T04:24:35.570Z,97497.00
2018-08-17T04:27:06.198Z,97495.00
2018-08-17T04:29:37.431Z,97499.00
2018-08-17T04:32:08.051Z,97500.00
2018-08-17T04:34:38.339Z,97503.00
2018-08-17T04:37:09.464Z,97503.00
2018-08-17T04:39:39.892Z,97503.00
2018-08-17T04:42:10.355Z,97506.00
2018-08-17T04:44:40.666Z,97506.00
2018-08-17T04:47:11.080Z,97504.00
2018-08-17T04:49:41.529Z,97507.00
2018-08-17T04:52:11.918Z,97511.00
2018-08-17T04:54:42.237Z,97504.00
2018-08-17T04:57:12.487Z,97502.00
2018-08-17T04:59:43.039Z,97505.00
2018-08-17T05:02:13.495Z,97505.00
2018-08-17T05:04:43.774Z,97501.00
2018-08-17T05:07:14.071Z,97498.00
2018-08-17T05:09:44.518Z,97499.00
2018-08-17T05:12:14.952Z,97500.00
2018-08-17T05:14:45.392Z,97503.00
2018-08-17T05:17:15.599Z,97503.00
2018-08-17T05:19:46.074Z,97501.00
2018-08-17T05:22:16.446Z,97503.00
2018-08-17T05:24:46.923Z,97501.00
2018-08-17T05:27:17.409Z,97506.00
2018-08-17T05:29:47.776Z,97505.00
2018-08-17T05:32:18.035Z,97505.00
2018-08-17T05:34:48.400Z,97503.00
2018-08-17T05:37:18.921Z,97504.00
2018-08-17T05:39:49.134Z,97505.00
2018-08-17T05:42:19.462Z,97510.00
2018-08-17T05:44:49.922Z,97505.00
2018-08-17T05:47:20.310Z,97516.00
2018-08-17T05:49:50.546Z,97505.00
2018-08-17T05:52:20.979Z,97508.00
2018-08-17T05:54:51.429Z,97502.00
2018-08-17T05:57:22.623Z,97499.00
2018-08-17T05:59:53.078Z,97504.00
2018-08-17T06:02:23.437Z,97503.00
2018-08-17T06:04:53.840Z,97502.00
2018-08-17T06:07:27.167Z,97503.00
2018-08-17T06:09:57.524Z,97502.00
2018-08-17T06:12:27.940Z,97507.00
2018-08-17T06:14:58.508Z,97506.00
2018-08-17T06:17:28.784Z,97505.00
2018-08-17T06:19:59.374Z,97500.00
2018-08-17T06:22:29.858Z,97506.00
2018-08-17T06:25:00.199Z,97504.00
2018-08-17T06:27:30.624Z,97504.00
2018-08-17T06:30:01.016Z,97504.00
2018-08-17T06:32:31.453Z,97502.00
2018-08-17T06:35:01.936Z,97500.00
2018-08-17T06:37:32.322Z,97505.00
2018-08-17T06:40:02.733Z,97505.00
2018-08-17T06:42:33.451Z,97508.00
2018-08-17T06:45:04.139Z,97507.00
2018-08-17T06:47:34.552Z,97512.00
2018-08-17T06:50:05.735Z,97507.00
2018-08-17T06:52:36.003Z,97502.00
2018-08-17T06:55:08.143Z,97506.00
2018-08-17T06:57:39.081Z,97503.00
2018-08-17T07:00:15.812Z,97508.00
2018-08-17T07:02:47.103Z,97511.00
2018-08-17T07:05:17.370Z,97512.00
2018-08-17T07:07:47.898Z,97513.00
2018-08-17T07:10:18.395Z,97515.00
2018-08-17T07:12:48.591Z,97503.00
2018-08-17T07:15:19.056Z,97512.00
2018-08-17T07:17:49.521Z,97514.00
2018-08-17T07:20:19.841Z,97510.00
2018-08-17T07:22:50.070Z,97511.00
2018-08-17T07:25:20.459Z,97504.00
2018-08-17T07:27:51.006Z,97503.00
2018-08-17T07:30:21.388Z,97499.00
2018-08-17T07:32:51.571Z,97500.00
2018-08-17T07:35:21.872Z,97507.00
2018-08-17T07:37:52.451Z,97510.00
2018-08-17T07:40:22.853Z,97505.00
2018-08-17T07:42:53.276Z,97513.00
2018-08-17T07:45:23.690Z,97511.00
2018-08-17T07:47:54.063Z,97517.00
2018-08-17T07:50:24.491Z,97512.00
2018-08-17T07:52:54.765Z,97515.00
2018-08-17T07:55:25.210Z,97512.00
2018-08-17T07:57:55.614Z,97515.00
2018-08-17T08:00:26.037Z,97516.00
2018-08-17T08:02:56.263Z,97514.00
2018-08-17T08:05:26.602Z,97513.00
2018-08-17T08:07:57.992Z,97515.00
2018-08-17T08:10:28.203Z,97518.00
2018-08-17T08:12:58.505Z,97523.00
2018-08-17T08:15:28.918Z,97522.00
2018-08-17T08:17:59.378Z,97525.00
2018-08-17T08:20:36.067Z,97519.00
2018-08-17T08:23:22.847Z,97522.00
2018-08-17T08:25:53.363Z,97523.00
2018-08-17T08:28:23.835Z,97517.00
2018-08-17T08:30:54.087Z,97513.00
2018-08-17T08:33:24.543Z,97515.00
2018-08-17T08:35:54.984Z,97516.00
2018-08-17T08:38:25.415Z,97511.00
2018-08-17T08:40:55.819Z,97510.00
2018-08-17T08:43:26.178Z,97512.00
2018-08-17T08:45:56.459Z,97507.00
2018-08-17T08:48:26.922Z,97512.00
2018-08-17T08:50:57.060Z,97510.00
2018-08-17T08:53:27.474Z,97506.00
2018-08-17T08:55:58.029Z,97501.00
2018-08-17T08:58:28.913Z,97498.00
2018-08-17T09:00:59.396Z,97496.00
2018-08-17T09:03:29.595Z,97496.00
2018-08-17T09:05:59.849Z,97492.00
2018-08-17T09:08:30.409Z,97490.00
2018-08-17T09:11:01.046Z,97492.00
2018-08-17T09:13:31.251Z,97494.00
2018-08-17T09:16:01.665Z,97492.00
2018-08-17T09:18:32.885Z,97496.00
2018-08-17T09:21:03.135Z,97499.00
2018-08-17T09:23:33.623Z,97495.00
2018-08-17T09:26:04.030Z,97493.00
2018-08-17T09:28:34.313Z,97493.00
2018-08-17T09:31:04.762Z,97493.00
2018-08-17T09:33:35.191Z,97491.00
2018-08-17T09:36:05.524Z,97496.00
2018-08-17T09:38:35.783Z,97491.00
2018-08-17T09:41:06.204Z,97492.00
2018-08-17T09:43:36.481Z,97489.00
2018-08-17T09:46:07.020Z,97490.00
2018-08-17T09:48:37.479Z,97487.00
2018-08-17T09:51:07.746Z,97481.00
2018-08-17T09:53:38.183Z,97489.00
2018-08-17T09:56:08.511Z,97484.00
2018-08-17T09:58:38.962Z,97484.00
2018-08-17T10:01:14.234Z,97481.00
2018-08-17T10:03:48.616Z,97479.00
2018-08-17T10:06:23.892Z,97471.00
2018-08-17T10:08:59.728Z,97473.00
2018-08-17T10:11:30.050Z,97472.00
2018-08-17T10:14:00.361Z,97469.00
2018-08-17T10:16:30.734Z,97468.00
2018-08-17T10:19:01.145Z,97462.00
2018-08-17T10:21:39.171Z,97464.00
2018-08-17T10:24:09.338Z,97458.00
2018-08-17T10:26:39.568Z,97459.00
2018-08-17T10:29:09.899Z,97458.00
2018-08-17T10:31:40.402Z,97456.00
2018-08-17T10:34:10.855Z,97453.00
2018-08-17T10:36:41.722Z,97460.00
2018-08-17T10:39:11.931Z,97457.00
2018-08-17T10:41:42.680Z,97452.00
2018-08-17T10:44:13.384Z,97455.00
2018-08-17T10:46:43.825Z,97452.00
2018-08-17T10:49:14.134Z,97459.00
2018-08-17T10:51:44.632Z,97460.00
2018-08-17T10:54:15.203Z,97458.00
2018-08-17T10:56:45.350Z,97450.00
2018-08-17T10:59:15.718Z,97457.00
2018-08-17T11:01:46.228Z,97449.00
2018-08-17T11:04:16.359Z,97450.00
2018-08-17T11:06:46.750Z,97449.00
2018-08-17T11:09:17.317Z,97447.00
2018-08-17T11:11:47.725Z,97450.00
2018-08-17T11:14:18.272Z,97443.00
2018-08-17T11:16:55.268Z,97445.00
2018-08-17T11:19:25.765Z,97446.00
2018-08-17T11:21:56.209Z,97442.00
2018-08-17T11:24:26.426Z,97442.00
2018-08-17T11:26:56.816Z,97441.00
2018-08-17T11:29:27.082Z,97435.00
2018-08-17T11:31:57.266Z,97438.00
2018-08-17T11:34:27.641Z,97439.00
2018-08-17T11:36:57.954Z,97436.00
2018-08-17T11:39:28.192Z,97433.00
2018-08-17T11:41:58.453Z,97436.00
2018-08-17T11:44:28.736Z,97434.00
2018-08-17T11:47:00.954Z,97436.00
2018-08-17T11:49:31.506Z,97430.00
2018-08-17T11:52:02.067Z,97428.00
2018-08-17T11:54:32.562Z,97422.00
2018-08-17T11:57:02.970Z,97424.00
2018-08-17T11:59:33.379Z,97423.00
2018-08-17T12:02:03.800Z,97425.00
2018-08-17T12:04:34.011Z,97420.00
2018-08-17T12:07:04.306Z,97420.00
2018-08-17T12:09:34.846Z,97416.00
2018-08-17T12:12:05.188Z,97415.00
2018-08-17T12:14:35.380Z,97416.00
2018-08-17T12:17:05.823Z,97412.00
2018-08-17T12:19:36.146Z,97413.00
2018-08-17T12:22:06.700Z,97410.00
2018-08-17T12:24:37.163Z,97412.00
2018-08-17T12:27:07.472Z,97414.00
2018-08-17T12:29:37.779Z,97412.00
2018-08-17T12:32:08.995Z,97409.00
2018-08-17T12:34:39.325Z,97405.00
2018-08-17T12:37:09.648Z,97400.00
2018-08-17T12:39:40.198Z,97405.00
2018-08-17T12:42:10.570Z,97402.00
2018-08-17T12:44:40.840Z,97395.00
2018-08-17T12:47:11.237Z,97399.00
2018-08-17T12:49:41.545Z,97402.00
2018-08-17T12:52:11.963Z,97403.00
2018-08-17T12:54:42.374Z,97398.00
2018-08-17T12:57:12.673Z,97395.00
2018-08-17T12:59:43.086Z,97394.00
2018-08-17T13:02:13.357Z,97401.00
2018-08-17T13:04:43.639Z,97394.00
2018-08-17T13:07:13.917Z,97392.00
2018-08-17T13:09:44.176Z,97392.00
2018-08-17T13:12:14.464Z,97386.00
2018-08-17T13:14:44.862Z,97389.00
2018-08-17T13:17:15.049Z,97388.00
2018-08-17T13:19:45.527Z,97379.00
2018-08-17T13:22:16.125Z,97380.00
2018-08-17T13:24:46.499Z,97382.00
2018-08-17T13:27:16.939Z,97383.00
2018-08-17T13:29:47.201Z,97380.00
2018-08-17T13:32:17.537Z,97374.00
2018-08-17T13:34:47.917Z,97372.00
2018-08-17T13:37:18.348Z,97371.00
2018-08-17T13:39:48.746Z,97369.00
2018-08-17T13:42:19.182Z,97360.00
2018-08-17T13:44:49.535Z,97365.00
2018-08-17T13:47:19.899Z,97359.00
2018-08-17T13:49:50.210Z,97359.00
2018-08-17T13:52:20.565Z,97355.00
2018-08-17T13:54:50.923Z,97356.00
2018-08-17T13:57:21.346Z,97354.00
2018-08-17T13:59:51.757Z,97356.00
2018-08-17T14:02:22.917Z,97346.00
2018-08-17T14:04:53.380Z,97347.00
2018-08-17T14:07:23.677Z,97344.00
2018-08-17T14:09:54.151Z,97346.00
2018-08-17T14:12:24.411Z,97340.00
2018-08-17T14:14:54.867Z,97346.00
2018-08-17T14:17:25.276Z,97350.00
2018-08-17T14:19:55.469Z,97340.00
2018-08-17T14:22:25.935Z,97342.00
2018-08-17T14:24:56.226Z,97348.00
2018-08-17T14:27:26.463Z,97349.00
2018-08-17T14:29:56.881Z,97344.00
2018-08-17T14:32:27.278Z,97342.00
2018-08-17T14:34:57.450Z,97345.00
2018-08-17T14:37:27.822Z,97350.00
2018-08-17T14:39:58.164Z,97348.00
2018-08-17T14:42:28.406Z,97345.00
2018-08-17T14:44:58.793Z,97348.00
2018-08-17T14:47:29.032Z,97340.00
2018-08-17T14:49:59.292Z,97341.00
2018-08-17T14:52:29.735Z,97340.00
2018-08-17T14:54:59.933Z,97341.00
2018-08-17T14:57:30.231Z,97339.00
2018-08-17T15:00:00.691Z,97341.00
2018-08-17T15:02:31.114Z,97334.00
2018-08-17T15:05:01.464Z,97335.00
2018-08-17T15:07:32.100Z,97329.00
2018-08-17T15:10:02.432Z,97333.00
2018-08-17T15:12:32.732Z,97334.00
2018-08-17T15:15:03.238Z,97328.00
2018-08-17T15:17:33.666Z,97324.00
2018-08-17T15:20:03.889Z,97331.00
2018-08-17T15:22:34.360Z,97331.00
2018-08-17T15:25:05.542Z,97334.00
2018-08-17T15:27:35.777Z,97335.00
2018-08-17T15:30:07.849Z,97336.00
2018-08-17T15:32:38.342Z,97336.00
2018-08-17T15:35:08.599Z,97331.00
2018-08-17T15:37:39.506Z,97335.00
2018-08-17T15:40:11.913Z,97332.00
2018-08-17T15:42:42.560Z,97331.00
2018-08-17T15:45:13.093Z,97329.00
2018-08-17T15:47:43.531Z,97334.00
2018-08-17T15:50:16.687Z,97332.00
2018-08-17T15:52:47.144Z,97331.00
2018-08-17T15:55:17.389Z,97328.00
2018-08-17T15:57:47.795Z,97329.00
2018-08-17T16:00:20.115Z,97329.00
2018-08-17T16:02:50.594Z,97320.00
2018-08-17T16:05:21.065Z,97319.00
2018-08-17T16:07:51.331Z,97321.00
2018-08-17T16:10:22.453Z,97321.00
2018-08-17T16:12:52.930Z,97316.00
2018-08-17T16:15:23.111Z,97316.00
2018-08-17T16:17:53.447Z,97310.00
2018-08-17T16:20:23.786Z,97319.00
2018-08-17T16:22:54.198Z,97323.00
2018-08-17T16:25:24.419Z,97324.00
2018-08-17T16:27:54.799Z,97321.00
2018-08-17T16:30:25.079Z,97320.00
2018-08-17T16:32:55.502Z,97317.00
2018-08-17T16:35:25.760Z,97315.00
2018-08-17T16:37:56.027Z,97317.00
2018-08-17T16:40:26.503Z,97314.00
2018-08-17T16:42:56.803Z,97319.00
2018-08-17T16:45:27.090Z,97319.00
2018-08-17T16:47:57.447Z,97330.00
2018-08-17T16:50:27.890Z,97327.00
2018-08-17T16:52:58.194Z,97328.00
2018-08-17T16:55:28.519Z,97335.00
2018-08-17T16:57:58.879Z,97339.00
2018-08-17T17:00:29.235Z,97335.00
2018-08-17T17:03:00.107Z,97338.00
2018-08-17T17:05:30.636Z,97339.00
2018-08-17T17:08:01.070Z,97338.00
2018-08-17T17:10:32.312Z,97345.00
2018-08-17T17:13:02.803Z,97345.00
2018-08-17T17:15:33.304Z,97351.00
2018-08-17T17:18:08.675Z,97357.00
2018-08-17T17:20:39.775Z,97362.00
2018-08-17T17:23:11.332Z,97365.00
2018-08-17T17:25:41.703Z,97370.00
2018-08-17T17:28:12.033Z,97366.00
2018-08-17T17:30:47.399Z,97370.00
2018-08-17T17:33:17.741Z,97371.00
2018-08-17T17:35:48.066Z,97375.00
2018-08-17T17:38:18.576Z,97380.00
2018-08-17T17:40:48.866Z,97381.00
2018-08-17T17:43:19.238Z,97382.00
2018-08-17T17:45:49.750Z,97389.00
2018-08-17T17:48:20.247Z,97393.00
2018-08-17T17:50:50.536Z,97396.00
2018-08-17T17:53:20.798Z,97398.00
2018-08-17T17:55:51.653Z,97397.00
2018-08-17T17:58:22.387Z,97404.00
2018-08-17T18:00:59.883Z,97408.00
2018-08-17T18:03:31.295Z,97416.00
2018-08-17T18:06:04.757Z,97417.00
2018-08-17T18:08:35.282Z,97416.00
2018-08-17T18:11:12.366Z,97416.00
2018-08-17T18:13:42.705Z,97425.00
2018-08-17T18:16:12.987Z,97427.00
2018-08-17T18:18:43.531Z,97429.00
2018-08-17T18:21:13.878Z,97430.00
2018-08-17T18:23:44.399Z,97432.00
2018-08-17T18:26:17.535Z,97434.00
2018-08-17T18:28:47.891Z,97443.00
2018-08-17T18:31:18.138Z,97442.00
2018-08-17T18:33:48.552Z,97446.00
2018-08-17T18:36:18.832Z,97449.00
2018-08-17T18:38:49.107Z,97452.00
2018-08-17T18:41:19.534Z,97455.00
2018-08-17T18:43:50.002Z,97454.00
2018-08-17T18:46:20.308Z,97469.00
2018-08-17T18:48:50.571Z,97474.00
2018-08-17T18:51:20.848Z,97473.00
2018-08-17T18:53:51.251Z,97479.00
2018-08-17T18:56:21.486Z,97481.00
2018-08-17T18:58:51.768Z,97482.00
2018-08-17T19:01:22.092Z,97482.00
2018-08-17T19:03:52.563Z,97478.00
2018-08-17T19:06:23.179Z,97481.00
2018-08-17T19:08:53.607Z,97481.00
2018-08-17T19:11:23.918Z,97481.00
2018-08-17T19:13:54.336Z,97480.00
2018-08-17T19:16:24.810Z,97483.00
2018-08-17T19:18:55.212Z,97489.00
2018-08-17T19:21:25.772Z,97492.00
2018-08-17T19:23:56.036Z,97500.00
2018-08-17T19:26:26.369Z,97502.00
2018-08-17T19:28:56.761Z,97501.00
2018-08-17T19:31:27.049Z,97503.00
2018-08-17T19:33:57.458Z,97493.00
2018-08-17T19:36:28.031Z,97496.00
2018-08-17T19:38:58.308Z,97495.00
2018-08-17T19:41:28.658Z,97496.00
2018-08-17T19:43:59.104Z,97508.00
2018-08-17T19:46:29.412Z,97508.00
2018-08-17T19:48:59.926Z,97509.00
2018-08-17T19:51:30.781Z,97514.00
2018-08-17T19:54:00.974Z,97512.00
2018-08-17T19:56:31.424Z,97523.00
2018-08-17T19:59:01.794Z,97522.00
2018-08-17T20:01:32.080Z,97521.00
2018-08-17T20:04:03.108Z,97527.00
2018-08-17T20:06:33.608Z,97530.00
2018-08-17T20:09:04.685Z,97533.00
2018-08-17T20:11:35.226Z,97538.00
2018-08-17T20:14:05.834Z,97533.00
2018-08-17T20:16:36.346Z,97533.00
2018-08-17T20:19:06.698Z,97535.00
2018-08-17T20:21:37.058Z,97538.00
2018-08-17T20:24:08.278Z,97540.00
2018-08-17T20:26:38.989Z,97546.00
2018-08-17T20:29:09.079Z,97538.00
2018-08-17T20:31:44.750Z,97542.00
2018-08-17T20:34:15.238Z,97539.00
2018-08-17T20:36:45.619Z,97537.00
2018-08-17T20:39:15.836Z,97541.00
2018-08-17T20:41:46.250Z,97544.00
2018-08-17T20:44:16.693Z,97550.00
2018-08-17T20:46:47.254Z,97550.00
2018-08-17T20:49:17.739Z,97546.00
2018-08-17T20:51:52.159Z,97545.00
2018-08-17T20:54:22.595Z,97546.00
2018-08-17T20:56:53.364Z,97548.00
2018-08-17T20:59:23.847Z,97550.00
2018-08-17T21:01:54.418Z,97544.00
2018-08-17T21:04:24.750Z,97553.00
2018-08-17T21:06:55.155Z,97552.00
2018-08-17T21:09:25.480Z,97550.00
2018-08-17T21:11:55.976Z,97548.00
2018-08-17T21:14:26.354Z,97550.00
2018-08-17T21:16:56.620Z,97549.00
2018-08-17T21:19:31.914Z,97547.00
2018-08-17T21:22:02.335Z,97543.00
2018-08-17T21:24:32.693Z,97544.00
2018-08-17T21:27:04.174Z,97551.00
2018-08-17T21:29:34.768Z,97542.00
2018-08-17T21:32:05.377Z,97546.00
2018-08-17T21:34:35.671Z,97552.00
2018-08-17T21:37:06.142Z,97554.00
2018-08-17T21:39:36.454Z,97558.00
2018-08-17T21:42:06.639Z,97554.00
2018-08-17T21:44:37.300Z,97554.00
2018-08-17T21:47:08.014Z,97550.00
2018-08-17T21:49:38.335Z,97545.00
2018-08-17T21:52:10.590Z,97547.00
2018-08-17T21:54:41.138Z,97550.00
2018-08-17T21:57:11.601Z,97552.00
2018-08-17T21:59:46.864Z,97552.00
2018-08-17T22:02:17.441Z,97553.00
2018-08-17T22:04:47.776Z,97548.00
2018-08-17T22:07:22.022Z,97550.00
2018-08-17T22:09:53.119Z,97552.00
2018-08-17T22:12:23.549Z,97557.00
2018-08-17T22:14:53.735Z,97559.00
2018-08-17T22:17:36.570Z,97563.00
2018-08-17T22:20:09.160Z,97567.00
2018-08-17T22:22:39.645Z,97570.00
2018-08-17T22:25:18.588Z,97570.00
2018-08-17T22:27:51.129Z,97574.00
2018-08-17T22:30:23.687Z,97580.00
2018-08-17T22:32:54.127Z,97578.00
2018-08-17T22:35:24.487Z,97579.00
2018-08-17T22:37:54.731Z,97579.00
2018-08-17T22:40:25.058Z,97578.00
2018-08-17T22:42:55.477Z,97577.00
2018-08-17T22:45:25.702Z,97577.00
2018-08-17T22:47:56.155Z,97578.00
2018-08-17T22:50:26.603Z,97575.00
2018-08-17T22:52:57.109Z,97577.00
2018-08-17T22:55:27.291Z,97570.00
2018-08-17T22:57:59.130Z,97579.00
2018-08-17T23:00:30.587Z,97577.00
2018-08-17T23:03:01.972Z,97573.00
2018-08-17T23:05:35.765Z,97580.00
2018-08-17T23:08:06.386Z,97579.00
2018-08-17T23:10:36.624Z,97580.00
2018-08-17T23:13:06.879Z,97577.00
2018-08-17T23:15:37.200Z,97580.00
2018-08-17T23:18:07.464Z,97579.00
2018-08-17T23:20:38.598Z,97586.00
2018-08-17T23:23:08.778Z,97585.00
2018-08-17T23:25:39.086Z,97581.00
2018-08-17T23:28:09.569Z,97580.00
2018-08-17T23:30:39.787Z,97582.00
2018-08-17T23:33:10.166Z,97583.00
2018-08-17T23:35:40.711Z,97585.00
2018-08-17T23:38:11.304Z,97585.00
2018-08-17T23:40:41.718Z,97590.00
2018-08-17T23:43:12.002Z,97593.00
2018-08-17T23:45:42.201Z,97592.00
2018-08-17T23:48:12.679Z,97591.00
2018-08-17T23:50:43.182Z,97594.00
2018-08-17T23:53:13.518Z,97592.00
2018-08-17T23:55:43.959Z,97591.00
2018-08-17T23:58:14.354Z,97591.00
